sensor_id;sensor_type;location;lat;lon;timestamp;temperature;humidity
2893;DHT22;1456;51.840;12.184;2023-05-17T00:02:21;7.20;99.90
2893;DHT22;1456;51.840;12.184;2023-05-17T00:05:04;7.20;99.90
2893;DHT22;1456;51.840;12.184;2023-05-17T00:07:37;7.10;99.90
2893;DHT22;1456;51.840;12.184;2023-05-17T00:10:05;7.10;99.90
2893;DHT22;1456;51.840;12.184;2023-05-17T00:12:30;7.10;99.90
2893;DHT22;1456;51.840;12.184;2023-05-17T00:14:56;7.10;99.90
2893;DHT22;1456;51.840;12.184;2023-05-17T00:17:24;7.10;99.90
2893;DHT22;1456;51.840;12.184;2023-05-17T00:19:57;7.00;99.90
2893;DHT22;1456;51.840;12.184;2023-05-17T00:22:23;6.90;99.90
2893;DHT22;1456;51.840;12.184;2023-05-17T00:24:55;6.90;99.90
2893;DHT22;1456;51.840;12.184;2023-05-17T00:27:24;6.80;99.90
2893;DHT22;1456;51.840;12.184;2023-05-17T00:29:55;6.80;99.90
2893;DHT22;1456;51.840;12.184;2023-05-17T00:32:22;6.80;99.90
2893;DHT22;1456;51.840;12.184;2023-05-17T00:34:55;6.70;99.90
2893;DHT22;1456;51.840;12.184;2023-05-17T00:37:21;6.70;99.90
2893;DHT22;1456;51.840;12.184;2023-05-17T00:39:49;6.70;99.90
2893;DHT22;1456;51.840;12.184;2023-05-17T00:42:15;6.60;99.90
2893;DHT22;1456;51.840;12.184;2023-05-17T00:44:42;6.50;99.90
2893;DHT22;1456;51.840;12.184;2023-05-17T00:47:11;6.40;99.90
2893;DHT22;1456;51.840;12.184;2023-05-17T00:49:37;6.40;99.90
2893;DHT22;1456;51.840;12.184;2023-05-17T00:52:06;6.40;99.90
2893;DHT22;1456;51.840;12.184;2023-05-17T00:54:32;6.40;99.90
2893;DHT22;1456;51.840;12.184;2023-05-17T00:57:00;6.40;99.90
2893;DHT22;1456;51.840;12.184;2023-05-17T00:59:27;6.40;99.90
2893;DHT22;1456;51.840;12.184;2023-05-17T01:01:53;6.30;99.90
2893;DHT22;1456;51.840;12.184;2023-05-17T01:04:20;6.20;99.90
2893;DHT22;1456;51.840;12.184;2023-05-17T01:06:48;6.10;99.90
2893;DHT22;1456;51.840;12.184;2023-05-17T01:09:24;6.10;99.90
2893;DHT22;1456;51.840;12.184;2023-05-17T01:20:38;6.00;99.90
2893;DHT22;1456;51.840;12.184;2023-05-17T01:26:39;5.80;99.90
2893;DHT22;1456;51.840;12.184;2023-05-17T01:29:31;5.80;99.90
2893;DHT22;1456;51.840;12.184;2023-05-17T01:32:10;5.70;99.90
2893;DHT22;1456;51.840;12.184;2023-05-17T01:34:36;5.70;99.90
2893;DHT22;1456;51.840;12.184;2023-05-17T01:37:04;5.60;99.90
2893;DHT22;1456;51.840;12.184;2023-05-17T01:39:36;5.60;99.90
2893;DHT22;1456;51.840;12.184;2023-05-17T01:42:15;5.60;99.90
2893;DHT22;1456;51.840;12.184;2023-05-17T01:47:46;5.50;99.90
2893;DHT22;1456;51.840;12.184;2023-05-17T01:50:27;5.50;99.90
2893;DHT22;1456;51.840;12.184;2023-05-17T01:55:52;5.40;99.90
2893;DHT22;1456;51.840;12.184;2023-05-17T01:58:21;5.40;99.90
2893;DHT22;1456;51.840;12.184;2023-05-17T02:00:54;5.50;99.90
2893;DHT22;1456;51.840;12.184;2023-05-17T02:03:22;5.40;99.90
2893;DHT22;1456;51.840;12.184;2023-05-17T02:05:50;5.50;99.90
2893;DHT22;1456;51.840;12.184;2023-05-17T02:08:20;5.40;99.90
2893;DHT22;1456;51.840;12.184;2023-05-17T02:10:50;5.50;99.90
2893;DHT22;1456;51.840;12.184;2023-05-17T02:13:17;5.40;99.90
2893;DHT22;1456;51.840;12.184;2023-05-17T02:15:44;5.40;99.90
2893;DHT22;1456;51.840;12.184;2023-05-17T02:18:11;5.30;99.90
2893;DHT22;1456;51.840;12.184;2023-05-17T02:20:41;5.30;99.90
2893;DHT22;1456;51.840;12.184;2023-05-17T02:23:13;5.30;99.90
2893;DHT22;1456;51.840;12.184;2023-05-17T02:25:52;5.20;99.90
2893;DHT22;1456;51.840;12.184;2023-05-17T02:28:20;5.20;99.90
2893;DHT22;1456;51.840;12.184;2023-05-17T02:30:47;5.20;99.90
2893;DHT22;1456;51.840;12.184;2023-05-17T02:33:18;5.20;99.90
2893;DHT22;1456;51.840;12.184;2023-05-17T02:35:59;5.30;99.90
2893;DHT22;1456;51.840;12.184;2023-05-17T02:38:26;5.30;99.90
2893;DHT22;1456;51.840;12.184;2023-05-17T02:40:52;5.30;99.90
2893;DHT22;1456;51.840;12.184;2023-05-17T02:43:18;5.30;99.90
2893;DHT22;1456;51.840;12.184;2023-05-17T02:45:44;5.30;99.90
2893;DHT22;1456;51.840;12.184;2023-05-17T02:48:11;5.30;99.90
2893;DHT22;1456;51.840;12.184;2023-05-17T02:50:39;5.20;99.90
2893;DHT22;1456;51.840;12.184;2023-05-17T02:53:05;5.20;99.90
2893;DHT22;1456;51.840;12.184;2023-05-17T02:55:39;5.20;99.90
2893;DHT22;1456;51.840;12.184;2023-05-17T02:58:05;5.20;99.90
2893;DHT22;1456;51.840;12.184;2023-05-17T03:00:32;5.20;99.90
2893;DHT22;1456;51.840;12.184;2023-05-17T03:02:58;5.30;99.90
2893;DHT22;1456;51.840;12.184;2023-05-17T03:05:26;5.30;99.90
2893;DHT22;1456;51.840;12.184;2023-05-17T03:07:53;5.30;99.90
2893;DHT22;1456;51.840;12.184;2023-05-17T03:10:20;5.30;99.90
2893;DHT22;1456;51.840;12.184;2023-05-17T03:12:45;5.20;99.90
2893;DHT22;1456;51.840;12.184;2023-05-17T03:15:13;5.20;99.90
2893;DHT22;1456;51.840;12.184;2023-05-17T03:17:40;5.20;99.90
2893;DHT22;1456;51.840;12.184;2023-05-17T03:20:08;5.30;99.90
2893;DHT22;1456;51.840;12.184;2023-05-17T03:22:39;5.30;99.90
2893;DHT22;1456;51.840;12.184;2023-05-17T03:25:08;5.30;99.90
2893;DHT22;1456;51.840;12.184;2023-05-17T03:27:35;5.30;99.90
2893;DHT22;1456;51.840;12.184;2023-05-17T03:30:04;5.40;99.90
2893;DHT22;1456;51.840;12.184;2023-05-17T03:32:31;5.40;99.90
2893;DHT22;1456;51.840;12.184;2023-05-17T03:34:56;5.40;99.90
2893;DHT22;1456;51.840;12.184;2023-05-17T03:37:26;5.40;99.90
2893;DHT22;1456;51.840;12.184;2023-05-17T03:39:54;5.40;99.90
2893;DHT22;1456;51.840;12.184;2023-05-17T03:42:20;5.40;99.90
2893;DHT22;1456;51.840;12.184;2023-05-17T03:44:50;5.50;99.90
2893;DHT22;1456;51.840;12.184;2023-05-17T03:47:24;5.50;99.90
2893;DHT22;1456;51.840;12.184;2023-05-17T03:49:51;5.60;99.90
2893;DHT22;1456;51.840;12.184;2023-05-17T03:52:17;5.60;99.90
2893;DHT22;1456;51.840;12.184;2023-05-17T03:54:43;5.60;99.90
2893;DHT22;1456;51.840;12.184;2023-05-17T03:57:13;5.70;99.90
2893;DHT22;1456;51.840;12.184;2023-05-17T03:59:40;5.80;99.90
2893;DHT22;1456;51.840;12.184;2023-05-17T04:02:05;5.90;99.90
2893;DHT22;1456;51.840;12.184;2023-05-17T04:04:35;5.90;99.90
2893;DHT22;1456;51.840;12.184;2023-05-17T04:07:05;6.10;99.90
2893;DHT22;1456;51.840;12.184;2023-05-17T04:09:31;6.20;99.90
2893;DHT22;1456;51.840;12.184;2023-05-17T04:11:59;6.30;99.90
2893;DHT22;1456;51.840;12.184;2023-05-17T04:14:26;6.40;99.90
2893;DHT22;1456;51.840;12.184;2023-05-17T04:16:52;6.30;99.90
2893;DHT22;1456;51.840;12.184;2023-05-17T04:19:18;6.40;99.90
2893;DHT22;1456;51.840;12.184;2023-05-17T04:21:46;6.50;99.90
2893;DHT22;1456;51.840;12.184;2023-05-17T04:24:12;6.70;99.90
2893;DHT22;1456;51.840;12.184;2023-05-17T04:26:39;6.90;99.90
2893;DHT22;1456;51.840;12.184;2023-05-17T04:29:05;7.10;99.90
2893;DHT22;1456;51.840;12.184;2023-05-17T04:31:33;7.20;99.90
2893;DHT22;1456;51.840;12.184;2023-05-17T04:34:00;7.30;99.90
2893;DHT22;1456;51.840;12.184;2023-05-17T04:36:25;7.30;99.90
2893;DHT22;1456;51.840;12.184;2023-05-17T04:38:55;7.40;99.90
2893;DHT22;1456;51.840;12.184;2023-05-17T04:41:20;7.30;99.90
2893;DHT22;1456;51.840;12.184;2023-05-17T04:43:53;7.20;99.90
2893;DHT22;1456;51.840;12.184;2023-05-17T04:46:21;7.10;99.90
2893;DHT22;1456;51.840;12.184;2023-05-17T04:48:50;7.10;99.90
2893;DHT22;1456;51.840;12.184;2023-05-17T04:51:23;7.10;99.90
2893;DHT22;1456;51.840;12.184;2023-05-17T04:53:51;7.10;99.90
2893;DHT22;1456;51.840;12.184;2023-05-17T04:56:25;7.30;99.90
2893;DHT22;1456;51.840;12.184;2023-05-17T04:58:51;7.30;99.90
2893;DHT22;1456;51.840;12.184;2023-05-17T05:01:18;7.40;99.90
2893;DHT22;1456;51.840;12.184;2023-05-17T05:03:45;7.50;99.90
2893;DHT22;1456;51.840;12.184;2023-05-17T05:06:11;7.70;99.90
2893;DHT22;1456;51.840;12.184;2023-05-17T05:08:37;8.00;99.90
2893;DHT22;1456;51.840;12.184;2023-05-17T05:11:03;8.20;99.90
2893;DHT22;1456;51.840;12.184;2023-05-17T05:13:33;8.40;99.90
2893;DHT22;1456;51.840;12.184;2023-05-17T05:16:05;8.60;99.90
2893;DHT22;1456;51.840;12.184;2023-05-17T05:18:31;8.80;99.90
2893;DHT22;1456;51.840;12.184;2023-05-17T05:21:01;8.90;99.90
2893;DHT22;1456;51.840;12.184;2023-05-17T05:23:29;9.00;99.90
2893;DHT22;1456;51.840;12.184;2023-05-17T05:25:56;9.00;99.90
2893;DHT22;1456;51.840;12.184;2023-05-17T05:28:24;9.10;99.90
2893;DHT22;1456;51.840;12.184;2023-05-17T05:30:58;9.10;99.90
2893;DHT22;1456;51.840;12.184;2023-05-17T05:33:28;9.20;99.90
2893;DHT22;1456;51.840;12.184;2023-05-17T05:36:06;9.30;99.90
2893;DHT22;1456;51.840;12.184;2023-05-17T05:38:42;9.50;99.90
2893;DHT22;1456;51.840;12.184;2023-05-17T05:41:08;9.60;99.90
2893;DHT22;1456;51.840;12.184;2023-05-17T05:43:41;9.70;99.90
2893;DHT22;1456;51.840;12.184;2023-05-17T05:46:11;9.70;99.90
2893;DHT22;1456;51.840;12.184;2023-05-17T05:48:40;9.80;99.90
2893;DHT22;1456;51.840;12.184;2023-05-17T05:51:07;9.80;99.90
2893;DHT22;1456;51.840;12.184;2023-05-17T05:53:33;9.90;99.90
2893;DHT22;1456;51.840;12.184;2023-05-17T05:56:00;9.90;99.90
2893;DHT22;1456;51.840;12.184;2023-05-17T05:58:27;10.00;99.90
2893;DHT22;1456;51.840;12.184;2023-05-17T06:00:55;10.10;99.90
2893;DHT22;1456;51.840;12.184;2023-05-17T06:03:23;10.20;99.90
2893;DHT22;1456;51.840;12.184;2023-05-17T06:06:08;10.20;99.90
2893;DHT22;1456;51.840;12.184;2023-05-17T06:08:36;10.30;99.90
2893;DHT22;1456;51.840;12.184;2023-05-17T06:11:03;10.40;99.90
2893;DHT22;1456;51.840;12.184;2023-05-17T06:13:38;10.60;99.90
2893;DHT22;1456;51.840;12.184;2023-05-17T06:16:06;10.60;99.90
2893;DHT22;1456;51.840;12.184;2023-05-17T06:18:37;10.70;99.90
2893;DHT22;1456;51.840;12.184;2023-05-17T06:21:04;10.90;99.90
2893;DHT22;1456;51.840;12.184;2023-05-17T06:23:32;11.00;99.90
2893;DHT22;1456;51.840;12.184;2023-05-17T06:26:05;11.10;99.90
2893;DHT22;1456;51.840;12.184;2023-05-17T06:28:41;11.20;99.90
2893;DHT22;1456;51.840;12.184;2023-05-17T06:31:10;11.30;99.90
2893;DHT22;1456;51.840;12.184;2023-05-17T06:33:42;11.60;99.90
2893;DHT22;1456;51.840;12.184;2023-05-17T06:36:09;11.70;99.90
2893;DHT22;1456;51.840;12.184;2023-05-17T06:38:34;11.70;99.90
2893;DHT22;1456;51.840;12.184;2023-05-17T06:41:00;12.10;99.90
2893;DHT22;1456;51.840;12.184;2023-05-17T06:43:26;12.40;99.90
2893;DHT22;1456;51.840;12.184;2023-05-17T06:45:54;12.70;99.80
2893;DHT22;1456;51.840;12.184;2023-05-17T06:48:20;12.80;98.40
2893;DHT22;1456;51.840;12.184;2023-05-17T06:50:47;13.00;98.70
2893;DHT22;1456;51.840;12.184;2023-05-17T06:53:13;13.00;97.20
2893;DHT22;1456;51.840;12.184;2023-05-17T06:55:40;12.80;97.60
2893;DHT22;1456;51.840;12.184;2023-05-17T06:58:10;12.80;97.30
2893;DHT22;1456;51.840;12.184;2023-05-17T07:00:40;12.80;97.30
2893;DHT22;1456;51.840;12.184;2023-05-17T07:03:18;12.80;96.20
2893;DHT22;1456;51.840;12.184;2023-05-17T07:05:52;12.80;96.30
2893;DHT22;1456;51.840;12.184;2023-05-17T07:08:18;13.10;96.10
2893;DHT22;1456;51.840;12.184;2023-05-17T07:10:46;13.40;95.70
2893;DHT22;1456;51.840;12.184;2023-05-17T07:13:17;13.50;94.90
2893;DHT22;1456;51.840;12.184;2023-05-17T07:15:50;13.70;95.40
2893;DHT22;1456;51.840;12.184;2023-05-17T07:18:16;13.90;94.60
2893;DHT22;1456;51.840;12.184;2023-05-17T07:20:50;14.10;93.50
2893;DHT22;1456;51.840;12.184;2023-05-17T07:23:22;13.50;91.40
2893;DHT22;1456;51.840;12.184;2023-05-17T07:25:49;13.00;91.90
2893;DHT22;1456;51.840;12.184;2023-05-17T07:28:15;13.00;92.60
2893;DHT22;1456;51.840;12.184;2023-05-17T07:30:41;13.20;91.70
2893;DHT22;1456;51.840;12.184;2023-05-17T07:33:07;13.20;91.50
2893;DHT22;1456;51.840;12.184;2023-05-17T07:35:34;13.40;91.70
2893;DHT22;1456;51.840;12.184;2023-05-17T07:38:00;13.90;92.00
2893;DHT22;1456;51.840;12.184;2023-05-17T07:40:29;13.90;91.10
2893;DHT22;1456;51.840;12.184;2023-05-17T07:42:59;13.70;90.50
2893;DHT22;1456;51.840;12.184;2023-05-17T07:45:25;13.30;90.90
2893;DHT22;1456;51.840;12.184;2023-05-17T07:47:55;13.10;90.40
2893;DHT22;1456;51.840;12.184;2023-05-17T07:50:23;13.00;90.50
2893;DHT22;1456;51.840;12.184;2023-05-17T07:52:49;13.30;91.80
2893;DHT22;1456;51.840;12.184;2023-05-17T07:55:16;14.00;90.90
2893;DHT22;1456;51.840;12.184;2023-05-17T07:57:42;14.50;90.50
2893;DHT22;1456;51.840;12.184;2023-05-17T08:00:08;14.60;90.00
2893;DHT22;1456;51.840;12.184;2023-05-17T08:02:38;14.50;90.10
2893;DHT22;1456;51.840;12.184;2023-05-17T08:05:04;14.30;88.90
2893;DHT22;1456;51.840;12.184;2023-05-17T08:07:30;14.30;90.00
2893;DHT22;1456;51.840;12.184;2023-05-17T08:09:57;14.40;90.20
2893;DHT22;1456;51.840;12.184;2023-05-17T08:12:23;14.40;90.10
2893;DHT22;1456;51.840;12.184;2023-05-17T08:14:49;14.00;89.30
2893;DHT22;1456;51.840;12.184;2023-05-17T08:17:17;13.70;89.20
2893;DHT22;1456;51.840;12.184;2023-05-17T08:19:50;13.70;89.90
2893;DHT22;1456;51.840;12.184;2023-05-17T08:22:20;14.40;90.90
2893;DHT22;1456;51.840;12.184;2023-05-17T08:24:46;15.00;86.40
2893;DHT22;1456;51.840;12.184;2023-05-17T08:27:12;15.00;87.00
2893;DHT22;1456;51.840;12.184;2023-05-17T08:29:40;15.00;86.50
2893;DHT22;1456;51.840;12.184;2023-05-17T08:32:07;15.30;88.40
2893;DHT22;1456;51.840;12.184;2023-05-17T08:34:35;15.30;87.10
2893;DHT22;1456;51.840;12.184;2023-05-17T08:37:04;14.80;86.10
2893;DHT22;1456;51.840;12.184;2023-05-17T08:39:31;14.40;85.90
2893;DHT22;1456;51.840;12.184;2023-05-17T08:41:57;14.10;86.30
2893;DHT22;1456;51.840;12.184;2023-05-17T08:44:32;13.90;85.70
2893;DHT22;1456;51.840;12.184;2023-05-17T08:47:05;14.50;86.40
2893;DHT22;1456;51.840;12.184;2023-05-17T08:49:32;14.80;83.80
2893;DHT22;1456;51.840;12.184;2023-05-17T08:52:02;14.70;84.70
2893;DHT22;1456;51.840;12.184;2023-05-17T08:54:36;14.40;85.50
2893;DHT22;1456;51.840;12.184;2023-05-17T08:57:09;14.40;85.60
2893;DHT22;1456;51.840;12.184;2023-05-17T08:59:38;14.40;86.10
2893;DHT22;1456;51.840;12.184;2023-05-17T09:02:04;14.50;85.00
2893;DHT22;1456;51.840;12.184;2023-05-17T09:04:35;14.30;83.70
2893;DHT22;1456;51.840;12.184;2023-05-17T09:07:01;14.40;84.90
2893;DHT22;1456;51.840;12.184;2023-05-17T09:09:36;14.80;83.40
2893;DHT22;1456;51.840;12.184;2023-05-17T09:12:02;15.00;80.80
2893;DHT22;1456;51.840;12.184;2023-05-17T09:14:32;15.20;81.50
2893;DHT22;1456;51.840;12.184;2023-05-17T09:17:05;15.60;83.20
2893;DHT22;1456;51.840;12.184;2023-05-17T09:19:42;16.10;79.80
2893;DHT22;1456;51.840;12.184;2023-05-17T09:22:17;16.00;80.50
2893;DHT22;1456;51.840;12.184;2023-05-17T09:24:43;15.80;78.00
2893;DHT22;1456;51.840;12.184;2023-05-17T09:27:17;15.70;75.80
2893;DHT22;1456;51.840;12.184;2023-05-17T09:29:47;15.90;73.80
2893;DHT22;1456;51.840;12.184;2023-05-17T09:32:17;15.90;73.30
2893;DHT22;1456;51.840;12.184;2023-05-17T09:34:46;16.00;77.80
2893;DHT22;1456;51.840;12.184;2023-05-17T09:37:16;16.90;74.50
2893;DHT22;1456;51.840;12.184;2023-05-17T09:39:45;16.90;70.40
2893;DHT22;1456;51.840;12.184;2023-05-17T09:42:14;16.30;69.10
2893;DHT22;1456;51.840;12.184;2023-05-17T09:45:00;16.00;76.20
2893;DHT22;1456;51.840;12.184;2023-05-17T09:47:28;16.40;73.50
2893;DHT22;1456;51.840;12.184;2023-05-17T09:50:00;17.20;72.00
2893;DHT22;1456;51.840;12.184;2023-05-17T09:52:29;17.70;72.30
2893;DHT22;1456;51.840;12.184;2023-05-17T09:54:59;17.70;67.00
2893;DHT22;1456;51.840;12.184;2023-05-17T09:57:35;17.80;69.00
2893;DHT22;1456;51.840;12.184;2023-05-17T10:00:03;18.20;67.80
2893;DHT22;1456;51.840;12.184;2023-05-17T10:02:41;18.00;66.40
2893;DHT22;1456;51.840;12.184;2023-05-17T10:05:16;17.90;67.80
2893;DHT22;1456;51.840;12.184;2023-05-17T10:07:45;18.00;65.40
2893;DHT22;1456;51.840;12.184;2023-05-17T10:10:13;17.30;66.80
2893;DHT22;1456;51.840;12.184;2023-05-17T10:12:39;17.10;66.90
2893;DHT22;1456;51.840;12.184;2023-05-17T10:15:15;17.30;66.70
2893;DHT22;1456;51.840;12.184;2023-05-17T10:17:44;17.40;64.50
2893;DHT22;1456;51.840;12.184;2023-05-17T10:20:26;17.40;66.10
2893;DHT22;1456;51.840;12.184;2023-05-17T10:22:55;17.90;64.80
2893;DHT22;1456;51.840;12.184;2023-05-17T10:25:25;18.20;65.00
2893;DHT22;1456;51.840;12.184;2023-05-17T10:28:04;18.10;65.10
2893;DHT22;1456;51.840;12.184;2023-05-17T10:30:32;17.30;64.40
2893;DHT22;1456;51.840;12.184;2023-05-17T10:33:03;17.40;67.00
2893;DHT22;1456;51.840;12.184;2023-05-17T10:35:32;18.10;64.50
2893;DHT22;1456;51.840;12.184;2023-05-17T10:37:59;18.90;63.80
2893;DHT22;1456;51.840;12.184;2023-05-17T10:40:28;19.70;62.90
2893;DHT22;1456;51.840;12.184;2023-05-17T10:42:56;20.10;62.90
2893;DHT22;1456;51.840;12.184;2023-05-17T10:45:24;19.90;59.00
2893;DHT22;1456;51.840;12.184;2023-05-17T10:47:51;19.80;57.90
2893;DHT22;1456;51.840;12.184;2023-05-17T10:50:25;20.20;58.70
2893;DHT22;1456;51.840;12.184;2023-05-17T10:52:52;20.40;61.00
2893;DHT22;1456;51.840;12.184;2023-05-17T10:55:27;20.70;57.80
2893;DHT22;1456;51.840;12.184;2023-05-17T10:58:22;20.80;58.00
2893;DHT22;1456;51.840;12.184;2023-05-17T11:00:52;20.10;58.00
2893;DHT22;1456;51.840;12.184;2023-05-17T11:03:30;19.50;58.30
2893;DHT22;1456;51.840;12.184;2023-05-17T11:06:13;20.30;57.90
2893;DHT22;1456;51.840;12.184;2023-05-17T11:08:46;20.70;58.50
2893;DHT22;1456;51.840;12.184;2023-05-17T11:11:29;21.10;56.10
2893;DHT22;1456;51.840;12.184;2023-05-17T11:14:02;22.00;55.10
2893;DHT22;1456;51.840;12.184;2023-05-17T11:16:34;23.00;56.90
2893;DHT22;1456;51.840;12.184;2023-05-17T11:19:11;23.20;53.90
2893;DHT22;1456;51.840;12.184;2023-05-17T11:24:31;22.20;53.70
2893;DHT22;1456;51.840;12.184;2023-05-17T11:26:58;22.10;50.60
2893;DHT22;1456;51.840;12.184;2023-05-17T11:29:29;22.60;54.50
2893;DHT22;1456;51.840;12.184;2023-05-17T11:31:57;23.20;53.20
2893;DHT22;1456;51.840;12.184;2023-05-17T11:34:26;24.00;51.60
2893;DHT22;1456;51.840;12.184;2023-05-17T11:36:54;24.00;52.50
2893;DHT22;1456;51.840;12.184;2023-05-17T11:39:22;22.40;49.50
2893;DHT22;1456;51.840;12.184;2023-05-17T11:41:54;20.50;48.90
2893;DHT22;1456;51.840;12.184;2023-05-17T11:44:32;20.50;50.50
2893;DHT22;1456;51.840;12.184;2023-05-17T11:47:06;21.80;51.00
2893;DHT22;1456;51.840;12.184;2023-05-17T11:49:40;22.60;48.70
2893;DHT22;1456;51.840;12.184;2023-05-17T11:52:08;22.90;48.70
2893;DHT22;1456;51.840;12.184;2023-05-17T11:54:40;23.10;49.90
2893;DHT22;1456;51.840;12.184;2023-05-17T11:57:14;22.80;49.40
2893;DHT22;1456;51.840;12.184;2023-05-17T11:59:48;23.50;49.40
2893;DHT22;1456;51.840;12.184;2023-05-17T12:02:30;23.00;48.60
2893;DHT22;1456;51.840;12.184;2023-05-17T12:04:56;22.30;49.90
2893;DHT22;1456;51.840;12.184;2023-05-17T12:07:23;21.60;49.10
2893;DHT22;1456;51.840;12.184;2023-05-17T12:09:58;21.90;48.50
2893;DHT22;1456;51.840;12.184;2023-05-17T12:12:26;22.50;48.90
2893;DHT22;1456;51.840;12.184;2023-05-17T12:14:52;23.60;49.40
2893;DHT22;1456;51.840;12.184;2023-05-17T12:17:27;24.50;47.80
2893;DHT22;1456;51.840;12.184;2023-05-17T12:20:06;24.70;47.80
2893;DHT22;1456;51.840;12.184;2023-05-17T12:22:54;25.30;47.10
2893;DHT22;1456;51.840;12.184;2023-05-17T12:25:22;25.60;45.50
2893;DHT22;1456;51.840;12.184;2023-05-17T12:28:18;24.90;45.10
2893;DHT22;1456;51.840;12.184;2023-05-17T12:30:56;24.10;45.10
2893;DHT22;1456;51.840;12.184;2023-05-17T12:33:49;24.30;50.60
2893;DHT22;1456;51.840;12.184;2023-05-17T12:36:15;25.00;44.80
2893;DHT22;1456;51.840;12.184;2023-05-17T12:38:43;24.80;46.70
2893;DHT22;1456;51.840;12.184;2023-05-17T12:41:14;24.60;46.40
2893;DHT22;1456;51.840;12.184;2023-05-17T12:43:43;24.90;43.50
2893;DHT22;1456;51.840;12.184;2023-05-17T12:46:16;24.90;43.70
2893;DHT22;1456;51.840;12.184;2023-05-17T12:48:45;25.60;44.30
2893;DHT22;1456;51.840;12.184;2023-05-17T12:51:19;26.30;43.30
2893;DHT22;1456;51.840;12.184;2023-05-17T12:53:55;26.10;42.50
2893;DHT22;1456;51.840;12.184;2023-05-17T12:56:30;26.20;43.40
2893;DHT22;1456;51.840;12.184;2023-05-17T12:59:13;27.10;42.20
2893;DHT22;1456;51.840;12.184;2023-05-17T13:01:49;27.50;41.90
2893;DHT22;1456;51.840;12.184;2023-05-17T13:04:16;27.20;39.50
2893;DHT22;1456;51.840;12.184;2023-05-17T13:06:49;26.70;40.40
2893;DHT22;1456;51.840;12.184;2023-05-17T13:09:17;25.40;41.30
2893;DHT22;1456;51.840;12.184;2023-05-17T13:11:49;25.10;41.80
2893;DHT22;1456;51.840;12.184;2023-05-17T13:14:41;25.30;41.00
2893;DHT22;1456;51.840;12.184;2023-05-17T13:17:10;26.20;41.50
2893;DHT22;1456;51.840;12.184;2023-05-17T13:19:36;27.30;41.50
2893;DHT22;1456;51.840;12.184;2023-05-17T13:22:03;27.40;40.60
2893;DHT22;1456;51.840;12.184;2023-05-17T13:24:32;27.60;40.50
2893;DHT22;1456;51.840;12.184;2023-05-17T13:26:58;27.20;40.20
2893;DHT22;1456;51.840;12.184;2023-05-17T13:29:24;27.30;39.40
2893;DHT22;1456;51.840;12.184;2023-05-17T13:31:50;27.60;40.00
2893;DHT22;1456;51.840;12.184;2023-05-17T13:34:17;28.50;40.40
2893;DHT22;1456;51.840;12.184;2023-05-17T13:36:45;28.90;38.50
2893;DHT22;1456;51.840;12.184;2023-05-17T13:39:11;28.40;37.70
2893;DHT22;1456;51.840;12.184;2023-05-17T13:41:37;26.70;39.10
2893;DHT22;1456;51.840;12.184;2023-05-17T13:44:03;26.90;40.10
2893;DHT22;1456;51.840;12.184;2023-05-17T13:46:29;28.20;39.20
2893;DHT22;1456;51.840;12.184;2023-05-17T13:48:55;27.50;38.10
2893;DHT22;1456;51.840;12.184;2023-05-17T13:51:21;27.10;37.90
2893;DHT22;1456;51.840;12.184;2023-05-17T13:53:47;27.30;38.10
2893;DHT22;1456;51.840;12.184;2023-05-17T13:56:13;27.60;38.20
2893;DHT22;1456;51.840;12.184;2023-05-17T13:58:38;27.70;37.90
2893;DHT22;1456;51.840;12.184;2023-05-17T14:01:04;27.80;37.90
2893;DHT22;1456;51.840;12.184;2023-05-17T14:03:31;27.60;37.30
2893;DHT22;1456;51.840;12.184;2023-05-17T14:05:57;27.50;37.20
2893;DHT22;1456;51.840;12.184;2023-05-17T14:08:23;27.50;38.40
2893;DHT22;1456;51.840;12.184;2023-05-17T14:10:48;27.50;38.60
2893;DHT22;1456;51.840;12.184;2023-05-17T14:13:14;27.80;38.20
2893;DHT22;1456;51.840;12.184;2023-05-17T14:15:40;27.80;37.40
2893;DHT22;1456;51.840;12.184;2023-05-17T14:18:07;27.20;38.30
2893;DHT22;1456;51.840;12.184;2023-05-17T14:20:33;27.70;37.80
2893;DHT22;1456;51.840;12.184;2023-05-17T14:22:59;27.10;36.80
2893;DHT22;1456;51.840;12.184;2023-05-17T14:25:27;27.00;38.50
2893;DHT22;1456;51.840;12.184;2023-05-17T14:27:52;28.90;37.40
2893;DHT22;1456;51.840;12.184;2023-05-17T14:30:19;28.30;35.50
2893;DHT22;1456;51.840;12.184;2023-05-17T14:32:45;27.80;36.90
2893;DHT22;1456;51.840;12.184;2023-05-17T14:35:11;28.10;36.60
2893;DHT22;1456;51.840;12.184;2023-05-17T14:37:37;28.30;36.40
2893;DHT22;1456;51.840;12.184;2023-05-17T14:40:04;28.00;36.70
2893;DHT22;1456;51.840;12.184;2023-05-17T14:42:30;28.00;37.00
2893;DHT22;1456;51.840;12.184;2023-05-17T14:44:56;28.30;36.60
2893;DHT22;1456;51.840;12.184;2023-05-17T14:47:22;27.90;37.30
2893;DHT22;1456;51.840;12.184;2023-05-17T14:49:48;27.90;37.90
2893;DHT22;1456;51.840;12.184;2023-05-17T14:52:13;27.10;36.30
2893;DHT22;1456;51.840;12.184;2023-05-17T14:54:40;27.00;36.20
2893;DHT22;1456;51.840;12.184;2023-05-17T14:57:06;26.80;36.30
2893;DHT22;1456;51.840;12.184;2023-05-17T14:59:34;26.90;35.60
2893;DHT22;1456;51.840;12.184;2023-05-17T15:02:00;27.20;36.70
2893;DHT22;1456;51.840;12.184;2023-05-17T15:04:26;27.70;35.60
2893;DHT22;1456;51.840;12.184;2023-05-17T15:06:54;28.50;35.00
2893;DHT22;1456;51.840;12.184;2023-05-17T15:09:21;28.70;35.70
2893;DHT22;1456;51.840;12.184;2023-05-17T15:11:48;28.50;35.10
2893;DHT22;1456;51.840;12.184;2023-05-17T15:14:15;28.90;38.30
2893;DHT22;1456;51.840;12.184;2023-05-17T15:16:47;28.70;37.50
2893;DHT22;1456;51.840;12.184;2023-05-17T15:19:14;29.40;35.40
2893;DHT22;1456;51.840;12.184;2023-05-17T15:21:42;29.50;37.00
2893;DHT22;1456;51.840;12.184;2023-05-17T15:24:09;30.80;33.80
2893;DHT22;1456;51.840;12.184;2023-05-17T15:26:35;31.00;32.40
2893;DHT22;1456;51.840;12.184;2023-05-17T15:29:01;30.80;31.70
2893;DHT22;1456;51.840;12.184;2023-05-17T15:31:27;30.50;32.30
2893;DHT22;1456;51.840;12.184;2023-05-17T15:33:53;29.70;31.10
2893;DHT22;1456;51.840;12.184;2023-05-17T15:36:19;27.70;31.40
2893;DHT22;1456;51.840;12.184;2023-05-17T15:38:45;26.30;33.80
2893;DHT22;1456;51.840;12.184;2023-05-17T15:41:13;26.40;34.10
2893;DHT22;1456;51.840;12.184;2023-05-17T15:43:39;27.40;33.80
2893;DHT22;1456;51.840;12.184;2023-05-17T15:46:05;27.90;33.40
2893;DHT22;1456;51.840;12.184;2023-05-17T15:48:31;28.50;33.30
2893;DHT22;1456;51.840;12.184;2023-05-17T15:50:59;28.50;33.40
2893;DHT22;1456;51.840;12.184;2023-05-17T15:53:26;28.50;33.20
2893;DHT22;1456;51.840;12.184;2023-05-17T15:55:52;28.00;33.40
2893;DHT22;1456;51.840;12.184;2023-05-17T15:58:25;27.70;33.70
2893;DHT22;1456;51.840;12.184;2023-05-17T16:00:58;27.60;33.70
2893;DHT22;1456;51.840;12.184;2023-05-17T16:03:26;27.30;33.90
2893;DHT22;1456;51.840;12.184;2023-05-17T16:05:52;27.20;33.50
2893;DHT22;1456;51.840;12.184;2023-05-17T16:08:17;27.60;34.20
2893;DHT22;1456;51.840;12.184;2023-05-17T16:10:44;28.80;33.60
2893;DHT22;1456;51.840;12.184;2023-05-17T16:13:11;29.80;32.90
2893;DHT22;1456;51.840;12.184;2023-05-17T16:15:37;29.40;32.90
2893;DHT22;1456;51.840;12.184;2023-05-17T16:18:03;29.10;32.60
2893;DHT22;1456;51.840;12.184;2023-05-17T16:20:29;27.50;33.10
2893;DHT22;1456;51.840;12.184;2023-05-17T16:22:54;26.00;33.40
2893;DHT22;1456;51.840;12.184;2023-05-17T16:25:22;24.80;33.90
2893;DHT22;1456;51.840;12.184;2023-05-17T16:27:51;23.30;34.80